sensor_id;sensor_type;location;lat;lon;timestamp;pressure;altitude;pressure_sealevel;temperature;humidity
3132;BME280;62090;52.330;9.104;2023-07-13T00:01:02;100773.00;;;20.08;75.15
3132;BME280;62090;52.330;9.104;2023-07-13T00:03:33;100781.69;;;20.04;75.66
3132;BME280;62090;52.330;9.104;2023-07-13T00:06:03;100782.69;;;19.92;75.63
3132;BME280;62090;52.330;9.104;2023-07-13T00:08:34;100771.50;;;19.89;75.30
3132;BME280;62090;52.330;9.104;2023-07-13T00:11:04;100770.75;;;19.82;76.09
3132;BME280;62090;52.330;9.104;2023-07-13T00:13:34;100734.78;;;19.65;76.04
3132;BME280;62090;52.330;9.104;2023-07-13T00:16:08;100780.97;;;19.91;76.21
3132;BME280;62090;52.330;9.104;2023-07-13T00:18:41;100792.41;;;19.73;76.59
3132;BME280;62090;52.330;9.104;2023-07-13T00:21:11;100790.09;;;19.51;77.31
3132;BME280;62090;52.330;9.104;2023-07-13T00:23:42;100763.69;;;19.20;78.27
3132;BME280;62090;52.330;9.104;2023-07-13T00:26:12;100784.16;;;19.39;78.34
3132;BME280;62090;52.330;9.104;2023-07-13T00:28:42;100763.66;;;19.24;77.44
3132;BME280;62090;52.330;9.104;2023-07-13T00:31:14;100791.78;;;19.52;77.17
3132;BME280;62090;52.330;9.104;2023-07-13T00:33:46;100796.94;;;19.55;77.28
3132;BME280;62090;52.330;9.104;2023-07-13T00:36:16;100778.94;;;19.47;76.92
3132;BME280;62090;52.330;9.104;2023-07-13T00:38:47;100780.66;;;19.48;76.69
3132;BME280;62090;52.330;9.104;2023-07-13T00:41:16;100797.81;;;19.52;77.12
3132;BME280;62090;52.330;9.104;2023-07-13T00:43:46;100791.03;;;19.42;76.82
3132;BME280;62090;52.330;9.104;2023-07-13T00:46:25;100806.56;;;19.37;76.80
3132;BME280;62090;52.330;9.104;2023-07-13T00:48:58;100791.41;;;19.04;77.52
3132;BME280;62090;52.330;9.104;2023-07-13T00:51:39;100781.22;;;18.92;78.36
3132;BME280;62090;52.330;9.104;2023-07-13T00:54:13;100722.06;;;18.62;78.34
3132;BME280;62090;52.330;9.104;2023-07-13T00:56:45;100809.38;;;19.16;78.67
3132;BME280;62090;52.330;9.104;2023-07-13T00:59:17;100797.31;;;19.18;77.66
3132;BME280;62090;52.330;9.104;2023-07-13T01:01:51;100802.44;;;19.21;77.21
3132;BME280;62090;52.330;9.104;2023-07-13T01:04:23;100805.97;;;19.11;78.17
3132;BME280;62090;52.330;9.104;2023-07-13T01:06:55;100797.56;;;18.89;80.29
3132;BME280;62090;52.330;9.104;2023-07-13T01:09:27;100804.44;;;18.92;80.54
3132;BME280;62090;52.330;9.104;2023-07-13T01:11:57;100802.72;;;18.92;80.14
3132;BME280;62090;52.330;9.104;2023-07-13T01:14:27;100771.88;;;18.74;80.53
3132;BME280;62090;52.330;9.104;2023-07-13T01:16:59;100806.19;;;18.88;80.77
3132;BME280;62090;52.330;9.104;2023-07-13T01:19:35;100792.41;;;18.89;80.25
3132;BME280;62090;52.330;9.104;2023-07-13T01:22:10;100721.41;;;18.40;80.62
3132;BME280;62090;52.330;9.104;2023-07-13T01:24:42;100769.34;;;18.70;80.38
3132;BME280;62090;52.330;9.104;2023-07-13T01:27:14;100797.66;;;18.82;79.42
3132;BME280;62090;52.330;9.104;2023-07-13T01:29:45;100796.75;;;18.86;80.59
3132;BME280;62090;52.330;9.104;2023-07-13T01:32:18;100781.31;;;18.81;80.70
3132;BME280;62090;52.330;9.104;2023-07-13T01:34:51;100784.66;;;18.92;80.86
3132;BME280;62090;52.330;9.104;2023-07-13T01:37:25;100764.88;;;18.88;80.07
3132;BME280;62090;52.330;9.104;2023-07-13T01:39:59;100790.59;;;18.99;79.77
3132;BME280;62090;52.330;9.104;2023-07-13T01:42:30;100785.56;;;18.87;79.64
3132;BME280;62090;52.330;9.104;2023-07-13T01:45:00;100795.00;;;18.89;79.54
3132;BME280;62090;52.330;9.104;2023-07-13T01:47:30;100566.47;;;17.48;79.47
3132;BME280;62090;52.330;9.104;2023-07-13T01:50:00;100799.38;;;18.80;79.81
3132;BME280;62090;52.330;9.104;2023-07-13T01:52:32;100797.63;;;18.85;80.17
3132;BME280;62090;52.330;9.104;2023-07-13T01:55:03;100796.72;;;18.89;80.01
3132;BME280;62090;52.330;9.104;2023-07-13T01:57:33;100793.41;;;18.76;80.33
3132;BME280;62090;52.330;9.104;2023-07-13T02:00:04;100802.81;;;18.82;80.67
3132;BME280;62090;52.330;9.104;2023-07-13T02:02:47;100778.84;;;18.65;80.74
3132;BME280;62090;52.330;9.104;2023-07-13T02:05:17;100796.81;;;18.80;80.49
3132;BME280;62090;52.330;9.104;2023-07-13T02:07:50;100783.94;;;18.74;80.34
3132;BME280;62090;52.330;9.104;2023-07-13T02:10:20;100816.50;;;18.90;79.74
3132;BME280;62090;52.330;9.104;2023-07-13T02:12:50;100793.34;;;18.79;80.21
3132;BME280;62090;52.330;9.104;2023-07-13T02:15:20;100805.38;;;18.85;80.40
3132;BME280;62090;52.330;9.104;2023-07-13T02:17:50;100789.09;;;18.74;80.35
3132;BME280;62090;52.330;9.104;2023-07-13T02:20:20;100789.09;;;18.75;80.09
3132;BME280;62090;52.330;9.104;2023-07-13T02:22:52;100794.22;;;18.80;80.48
3132;BME280;62090;52.330;9.104;2023-07-13T02:25:22;100786.50;;;18.75;80.21
3132;BME280;62090;52.330;9.104;2023-07-13T02:27:53;100778.78;;;18.74;79.78
3132;BME280;62090;52.330;9.104;2023-07-13T02:30:23;100799.34;;;18.86;80.04
3132;BME280;62090;52.330;9.104;2023-07-13T02:32:54;100786.56;;;18.69;80.23
3132;BME280;62090;52.330;9.104;2023-07-13T02:35:23;100797.56;;;18.91;79.46
3132;BME280;62090;52.330;9.104;2023-07-13T02:37:56;100793.22;;;18.94;79.69
3132;BME280;62090;52.330;9.104;2023-07-13T02:40:26;100762.38;;;18.79;79.73
3132;BME280;62090;52.330;9.104;2023-07-13T02:42:56;100778.88;;;18.62;81.46
3132;BME280;62090;52.330;9.104;2023-07-13T02:45:26;100759.97;;;18.56;80.84
3132;BME280;62090;52.330;9.104;2023-07-13T02:47:56;100806.34;;;18.67;81.86
3132;BME280;62090;52.330;9.104;2023-07-13T02:50:25;100797.00;;;18.48;83.30
3132;BME280;62090;52.330;9.104;2023-07-13T02:52:58;100795.25;;;18.61;83.06
3132;BME280;62090;52.330;9.104;2023-07-13T02:55:28;100801.16;;;18.73;82.51
3132;BME280;62090;52.330;9.104;2023-07-13T02:57:58;100794.34;;;18.62;82.95
3132;BME280;62090;52.330;9.104;2023-07-13T03:00:28;100814.94;;;18.71;82.48
3132;BME280;62090;52.330;9.104;2023-07-13T03:02:58;100803.78;;;18.67;81.96
3132;BME280;62090;52.330;9.104;2023-07-13T03:05:28;100760.94;;;18.40;82.73
3132;BME280;62090;52.330;9.104;2023-07-13T03:08:01;100805.44;;;18.74;82.66
3132;BME280;62090;52.330;9.104;2023-07-13T03:10:31;100809.75;;;18.77;82.82
3132;BME280;62090;52.330;9.104;2023-07-13T03:13:02;100816.63;;;18.75;83.23
3132;BME280;62090;52.330;9.104;2023-07-13T03:15:32;100811.44;;;18.78;82.59
3132;BME280;62090;52.330;9.104;2023-07-13T03:18:03;100811.34;;;18.88;82.62
3132;BME280;62090;52.330;9.104;2023-07-13T03:20:33;100764.22;;;18.64;82.25
3132;BME280;62090;52.330;9.104;2023-07-13T03:23:05;100811.31;;;18.93;81.17
3132;BME280;62090;52.330;9.104;2023-07-13T03:25:35;100811.47;;;18.72;82.21
3132;BME280;62090;52.330;9.104;2023-07-13T03:28:05;100829.41;;;18.88;82.26
3132;BME280;62090;52.330;9.104;2023-07-13T03:30:35;100825.25;;;18.74;82.37
3132;BME280;62090;52.330;9.104;2023-07-13T03:33:05;100827.81;;;18.74;82.34
3132;BME280;62090;52.330;9.104;2023-07-13T03:35:35;100731.84;;;18.22;81.59
3132;BME280;62090;52.330;9.104;2023-07-13T03:38:07;100821.75;;;18.78;81.37
3132;BME280;62090;52.330;9.104;2023-07-13T03:40:38;100832.06;;;18.82;81.43
3132;BME280;62090;52.330;9.104;2023-07-13T03:43:08;100826.88;;;18.84;80.89
3132;BME280;62090;52.330;9.104;2023-07-13T03:45:38;100817.50;;;18.77;80.87
3132;BME280;62090;52.330;9.104;2023-07-13T03:48:08;100836.38;;;18.77;80.99
3132;BME280;62090;52.330;9.104;2023-07-13T03:50:38;100824.41;;;18.69;81.23
3132;BME280;62090;52.330;9.104;2023-07-13T03:53:10;100788.38;;;18.52;80.84
3132;BME280;62090;52.330;9.104;2023-07-13T03:55:40;100799.47;;;18.68;80.55
3132;BME280;62090;52.330;9.104;2023-07-13T03:58:28;100796.09;;;18.60;80.36
3132;BME280;62090;52.330;9.104;2023-07-13T04:01:06;100820.13;;;18.69;80.92
3132;BME280;62090;52.330;9.104;2023-07-13T04:03:37;100823.47;;;18.79;80.50
3132;BME280;62090;52.330;9.104;2023-07-13T04:06:08;100824.53;;;18.55;81.62
3132;BME280;62090;52.330;9.104;2023-07-13T04:08:47;100754.38;;;17.89;82.28
3132;BME280;62090;52.330;9.104;2023-07-13T04:11:19;100832.31;;;18.44;82.23
3132;BME280;62090;52.330;9.104;2023-07-13T04:13:50;100840.88;;;18.55;81.69
3132;BME280;62090;52.330;9.104;2023-07-13T04:16:20;100792.91;;;18.18;82.31
3132;BME280;62090;52.330;9.104;2023-07-13T04:18:51;100810.03;;;18.34;81.70
3132;BME280;62090;52.330;9.104;2023-07-13T04:21:22;100833.25;;;18.34;82.63
3132;BME280;62090;52.330;9.104;2023-07-13T04:23:55;100791.19;;;18.14;82.92
3132;BME280;62090;52.330;9.104;2023-07-13T04:26:25;100809.19;;;18.26;83.02
3132;BME280;62090;52.330;9.104;2023-07-13T04:28:55;100852.88;;;18.53;82.77
3132;BME280;62090;52.330;9.104;2023-07-13T04:31:25;100848.63;;;18.49;82.81
3132;BME280;62090;52.330;9.104;2023-07-13T04:33:55;100863.22;;;18.60;82.56
3132;BME280;62090;52.330;9.104;2023-07-13T04:36:25;100847.66;;;18.69;81.36
3132;BME280;62090;52.330;9.104;2023-07-13T04:38:58;100846.78;;;18.71;81.80
3132;BME280;62090;52.330;9.104;2023-07-13T04:41:28;100862.94;;;18.96;81.44
3132;BME280;62090;52.330;9.104;2023-07-13T04:43:58;100861.97;;;19.11;80.90
3132;BME280;62090;52.330;9.104;2023-07-13T04:46:30;100864.44;;;19.23;80.25
3132;BME280;62090;52.330;9.104;2023-07-13T04:49:00;100861.75;;;19.32;79.87
3132;BME280;62090;52.330;9.104;2023-07-13T04:51:30;100833.44;;;19.24;79.77
3132;BME280;62090;52.330;9.104;2023-07-13T04:54:04;100841.19;;;19.24;79.45
3132;BME280;62090;52.330;9.104;2023-07-13T04:56:34;100843.63;;;19.39;79.20
3132;BME280;62090;52.330;9.104;2023-07-13T04:59:04;100850.28;;;19.62;78.00
3132;BME280;62090;52.330;9.104;2023-07-13T05:01:34;100851.81;;;19.81;76.46
3132;BME280;62090;52.330;9.104;2023-07-13T05:04:04;100855.25;;;19.80;75.20
3132;BME280;62090;52.330;9.104;2023-07-13T05:06:34;100832.09;;;19.69;74.83
3132;BME280;62090;52.330;9.104;2023-07-13T05:09:09;100864.59;;;19.92;74.80
3132;BME280;62090;52.330;9.104;2023-07-13T05:11:39;100865.28;;;20.04;75.53
3132;BME280;62090;52.330;9.104;2023-07-13T05:14:09;100846.38;;;19.99;75.20
3132;BME280;62090;52.330;9.104;2023-07-13T05:16:39;100849.78;;;20.04;74.73
3132;BME280;62090;52.330;9.104;2023-07-13T05:19:09;100858.31;;;20.11;74.87
3132;BME280;62090;52.330;9.104;2023-07-13T05:21:39;100869.34;;;20.25;74.86
3132;BME280;62090;52.330;9.104;2023-07-13T05:24:11;100860.59;;;20.37;74.42
3132;BME280;62090;52.330;9.104;2023-07-13T05:26:51;100865.81;;;20.34;74.72
3132;BME280;62090;52.330;9.104;2023-07-13T05:29:22;100874.47;;;20.33;74.45
3132;BME280;62090;52.330;9.104;2023-07-13T05:31:52;100873.00;;;20.10;76.23
3132;BME280;62090;52.330;9.104;2023-07-13T05:34:23;100838.81;;;19.84;75.84
3132;BME280;62090;52.330;9.104;2023-07-13T05:36:53;100874.84;;;19.99;76.18
3132;BME280;62090;52.330;9.104;2023-07-13T05:39:25;100886.13;;;19.94;75.19
3132;BME280;62090;52.330;9.104;2023-07-13T05:41:55;100850.16;;;19.72;76.01
3132;BME280;62090;52.330;9.104;2023-07-13T05:44:25;100869.81;;;19.89;76.51
3132;BME280;62090;52.330;9.104;2023-07-13T05:46:55;100885.94;;;20.10;75.28
3132;BME280;62090;52.330;9.104;2023-07-13T05:49:25;100887.50;;;20.23;75.42
3132;BME280;62090;52.330;9.104;2023-07-13T05:51:57;100881.47;;;20.21;74.75
3132;BME280;62090;52.330;9.104;2023-07-13T05:54:29;100892.59;;;20.30;73.99
3132;BME280;62090;52.330;9.104;2023-07-13T05:56:59;100850.56;;;20.09;74.31
3132;BME280;62090;52.330;9.104;2023-07-13T05:59:29;100891.56;;;20.46;71.93
3132;BME280;62090;52.330;9.104;2023-07-13T06:01:59;100851.03;;;20.42;71.86
3132;BME280;62090;52.330;9.104;2023-07-13T06:04:29;100870.47;;;20.69;69.54
3132;BME280;62090;52.330;9.104;2023-07-13T06:06:59;100894.84;;;21.14;68.22
3132;BME280;62090;52.330;9.104;2023-07-13T06:09:31;100890.31;;;21.26;67.69
3132;BME280;62090;52.330;9.104;2023-07-13T06:12:01;100880.69;;;21.33;65.62
3132;BME280;62090;52.330;9.104;2023-07-13T06:14:31;100829.56;;;20.90;66.24
3132;BME280;62090;52.330;9.104;2023-07-13T06:17:00;100889.34;;;21.33;66.84
3132;BME280;62090;52.330;9.104;2023-07-13T06:19:30;100896.84;;;21.48;66.12
3132;BME280;62090;52.330;9.104;2023-07-13T06:22:00;100885.59;;;21.49;66.61
3132;BME280;62090;52.330;9.104;2023-07-13T06:24:33;100897.31;;;21.70;65.23
3132;BME280;62090;52.330;9.104;2023-07-13T06:27:03;100898.94;;;21.76;65.83
3132;BME280;62090;52.330;9.104;2023-07-13T06:29:33;100900.47;;;21.84;63.76
3132;BME280;62090;52.330;9.104;2023-07-13T06:32:04;100869.41;;;21.81;64.58
3132;BME280;62090;52.330;9.104;2023-07-13T06:34:34;100901.59;;;22.17;63.26
3132;BME280;62090;52.330;9.104;2023-07-13T06:37:06;100906.75;;;22.19;63.77
3132;BME280;62090;52.330;9.104;2023-07-13T06:39:38;100909.47;;;22.13;63.84
3132;BME280;62090;52.330;9.104;2023-07-13T06:42:08;100874.84;;;22.14;63.10
3132;BME280;62090;52.330;9.104;2023-07-13T06:44:40;100909.00;;;22.36;63.70
3132;BME280;62090;52.330;9.104;2023-07-13T06:47:10;100916.44;;;22.52;63.09
3132;BME280;62090;52.330;9.104;2023-07-13T06:49:40;100909.41;;;22.57;62.68
3132;BME280;62090;52.330;9.104;2023-07-13T06:52:10;100902.53;;;22.53;62.46
3132;BME280;62090;52.330;9.104;2023-07-13T06:54:42;100912.28;;;22.84;62.46
3132;BME280;62090;52.330;9.104;2023-07-13T06:57:12;100914.03;;;23.19;62.48
3132;BME280;62090;52.330;9.104;2023-07-13T06:59:42;100900.56;;;23.01;61.87
3132;BME280;62090;52.330;9.104;2023-07-13T07:02:11;100914.25;;;23.09;60.48
3132;BME280;62090;52.330;9.104;2023-07-13T07:04:41;100917.19;;;23.31;61.60
3132;BME280;62090;52.330;9.104;2023-07-13T07:07:11;100908.81;;;23.20;62.17
3132;BME280;62090;52.330;9.104;2023-07-13T07:09:43;100918.47;;;23.15;60.50
3132;BME280;62090;52.330;9.104;2023-07-13T07:12:13;100879.59;;;23.10;61.82
3132;BME280;62090;52.330;9.104;2023-07-13T07:14:43;100920.97;;;23.18;61.39
3132;BME280;62090;52.330;9.104;2023-07-13T07:17:13;100904.75;;;23.42;61.39
3132;BME280;62090;52.330;9.104;2023-07-13T07:19:43;100915.69;;;23.56;61.37
3132;BME280;62090;52.330;9.104;2023-07-13T07:22:13;100915.44;;;23.66;59.00
3132;BME280;62090;52.330;9.104;2023-07-13T07:24:45;100904.59;;;23.14;59.73
3132;BME280;62090;52.330;9.104;2023-07-13T07:27:15;100932.84;;;22.93;61.21
3132;BME280;62090;52.330;9.104;2023-07-13T07:29:48;100924.59;;;22.76;62.32
3132;BME280;62090;52.330;9.104;2023-07-13T07:32:30;100922.47;;;22.53;63.24
3132;BME280;62090;52.330;9.104;2023-07-13T07:35:04;100929.13;;;22.26;63.24
3132;BME280;62090;52.330;9.104;2023-07-13T07:37:34;100935.25;;;22.22;63.54
3132;BME280;62090;52.330;9.104;2023-07-13T07:40:10;100905.13;;;22.13;64.28
3132;BME280;62090;52.330;9.104;2023-07-13T07:42:43;100930.56;;;22.39;63.97
3132;BME280;62090;52.330;9.104;2023-07-13T07:45:14;100859.69;;;21.94;64.26
3132;BME280;62090;52.330;9.104;2023-07-13T07:47:43;100923.72;;;22.35;64.75
3132;BME280;62090;52.330;9.104;2023-07-13T07:50:13;100912.28;;;22.44;64.69
3132;BME280;62090;52.330;9.104;2023-07-13T07:52:43;100925.72;;;22.62;64.50
3132;BME280;62090;52.330;9.104;2023-07-13T07:55:16;100874.41;;;22.33;64.10
3132;BME280;62090;52.330;9.104;2023-07-13T07:57:49;100892.19;;;22.52;64.62
3132;BME280;62090;52.330;9.104;2023-07-13T08:00:22;100925.34;;;22.79;64.04
3132;BME280;62090;52.330;9.104;2023-07-13T08:03:12;100922.97;;;22.68;63.62
3132;BME280;62090;52.330;9.104;2023-07-13T08:05:44;100927.94;;;22.81;64.33
3132;BME280;62090;52.330;9.104;2023-07-13T08:08:34;100925.69;;;23.02;63.79
3132;BME280;62090;52.330;9.104;2023-07-13T08:11:08;100926.56;;;23.01;62.80
3132;BME280;62090;52.330;9.104;2023-07-13T08:13:41;100927.00;;;23.20;63.42
3132;BME280;62090;52.330;9.104;2023-07-13T08:16:11;100907.94;;;23.20;62.49
3132;BME280;62090;52.330;9.104;2023-07-13T08:18:41;100922.13;;;23.42;61.91
3132;BME280;62090;52.330;9.104;2023-07-13T08:21:11;100929.50;;;23.58;62.28
3132;BME280;62090;52.330;9.104;2023-07-13T08:23:40;100920.66;;;23.66;61.06
3132;BME280;62090;52.330;9.104;2023-07-13T08:26:13;100931.66;;;23.75;60.88
3132;BME280;62090;52.330;9.104;2023-07-13T08:28:43;100921.78;;;23.88;60.90
3132;BME280;62090;52.330;9.104;2023-07-13T08:31:12;100937.22;;;23.94;61.48
3132;BME280;62090;52.330;9.104;2023-07-13T08:33:43;100936.09;;;24.04;59.90
3132;BME280;62090;52.330;9.104;2023-07-13T08:36:12;100910.81;;;23.77;59.83
3132;BME280;62090;52.330;9.104;2023-07-13T08:38:42;100951.78;;;24.01;58.82
3132;BME280;62090;52.330;9.104;2023-07-13T08:41:17;100946.19;;;24.15;59.64
3132;BME280;62090;52.330;9.104;2023-07-13T08:43:50;100931.47;;;24.14;58.68
3132;BME280;62090;52.330;9.104;2023-07-13T08:46:24;100940.63;;;24.58;59.11
3132;BME280;62090;52.330;9.104;2023-07-13T08:48:57;100944.31;;;24.78;58.78
3132;BME280;62090;52.330;9.104;2023-07-13T08:51:34;100864.16;;;24.31;59.89
3132;BME280;62090;52.330;9.104;2023-07-13T08:54:12;100941.13;;;24.98;58.18
3132;BME280;62090;52.330;9.104;2023-07-13T08:56:48;100898.25;;;24.79;58.39
3132;BME280;62090;52.330;9.104;2023-07-13T08:59:22;100898.09;;;24.56;57.76
3132;BME280;62090;52.330;9.104;2023-07-13T09:02:07;100812.00;;;24.03;57.81
3132;BME280;62090;52.330;9.104;2023-07-13T09:04:48;100934.56;;;24.85;57.42
3132;BME280;62090;52.330;9.104;2023-07-13T09:07:26;100936.34;;;24.83;58.24
3132;BME280;62090;52.330;9.104;2023-07-13T09:10:08;100939.16;;;24.77;56.58
3132;BME280;62090;52.330;9.104;2023-07-13T09:12:55;100949.41;;;24.54;56.11
3132;BME280;62090;52.330;9.104;2023-07-13T09:15:30;100947.06;;;24.46;57.10
3132;BME280;62090;52.330;9.104;2023-07-13T09:18:03;100930.09;;;24.61;55.54
3132;BME280;62090;52.330;9.104;2023-07-13T09:20:37;100940.22;;;24.70;56.66
3132;BME280;62090;52.330;9.104;2023-07-13T09:23:15;100926.22;;;24.74;55.39
3132;BME280;62090;52.330;9.104;2023-07-13T09:25:48;100942.31;;;24.87;55.37
3132;BME280;62090;52.330;9.104;2023-07-13T09:28:27;100925.81;;;24.86;56.52
3132;BME280;62090;52.330;9.104;2023-07-13T09:31:01;100942.78;;;25.27;56.88
3132;BME280;62090;52.330;9.104;2023-07-13T09:33:33;100843.06;;;24.93;54.91
3132;BME280;62090;52.330;9.104;2023-07-13T09:36:17;100910.53;;;25.30;53.80
3132;BME280;62090;52.330;9.104;2023-07-13T09:38:48;100880.78;;;24.81;53.90
3132;BME280;62090;52.330;9.104;2023-07-13T09:41:23;100909.28;;;24.87;54.26
3132;BME280;62090;52.330;9.104;2023-07-13T09:44:27;100921.16;;;24.97;53.78
3132;BME280;62090;52.330;9.104;2023-07-13T09:46:58;100937.00;;;25.17;53.96
3132;BME280;62090;52.330;9.104;2023-07-13T09:49:32;100927.16;;;25.52;53.89
3132;BME280;62090;52.330;9.104;2023-07-13T09:52:05;100936.63;;;25.56;54.36
3132;BME280;62090;52.330;9.104;2023-07-13T09:54:36;100927.31;;;25.74;52.49
3132;BME280;62090;52.330;9.104;2023-07-13T09:57:12;100927.81;;;25.83;51.91
3132;BME280;62090;52.330;9.104;2023-07-13T09:59:47;100932.09;;;25.61;51.27
3132;BME280;62090;52.330;9.104;2023-07-13T10:02:26;100935.03;;;25.50;53.08
3132;BME280;62090;52.330;9.104;2023-07-13T10:04:58;100886.03;;;25.34;52.03
3132;BME280;62090;52.330;9.104;2023-07-13T10:07:31;100937.13;;;25.14;53.53
3132;BME280;62090;52.330;9.104;2023-07-13T10:10:02;100940.47;;;25.18;53.90
3132;BME280;62090;52.330;9.104;2023-07-13T10:12:36;100939.06;;;25.60;52.54
3132;BME280;62090;52.330;9.104;2023-07-13T10:15:14;100931.84;;;25.92;51.80
3132;BME280;62090;52.330;9.104;2023-07-13T10:17:51;100928.78;;;25.81;51.29
3132;BME280;62090;52.330;9.104;2023-07-13T10:20:22;100905.28;;;25.56;51.31
3132;BME280;62090;52.330;9.104;2023-07-13T10:22:55;100929.97;;;25.72;51.11
3132;BME280;62090;52.330;9.104;2023-07-13T10:25:31;100927.47;;;25.92;51.58
3132;BME280;62090;52.330;9.104;2023-07-13T10:28:06;100935.47;;;26.36;51.85
3132;BME280;62090;52.330;9.104;2023-07-13T10:30:46;100937.97;;;26.62;50.94
3132;BME280;62090;52.330;9.104;2023-07-13T10:33:16;100929.63;;;26.53;50.41
3132;BME280;62090;52.330;9.104;2023-07-13T10:35:48;100903.19;;;26.14;49.40
3132;BME280;62090;52.330;9.104;2023-07-13T10:38:22;100941.78;;;25.82;49.18
3132;BME280;62090;52.330;9.104;2023-07-13T10:40:58;100934.22;;;25.75;49.52
3132;BME280;62090;52.330;9.104;2023-07-13T10:43:33;100932.22;;;25.81;50.01
3132;BME280;62090;52.330;9.104;2023-07-13T10:46:10;100914.94;;;26.02;50.21
3132;BME280;62090;52.330;9.104;2023-07-13T10:48:43;100917.06;;;26.16;50.71
3132;BME280;62090;52.330;9.104;2023-07-13T10:51:17;100905.22;;;25.82;49.73
3132;BME280;62090;52.330;9.104;2023-07-13T10:54:14;100934.19;;;25.99;51.35
3132;BME280;62090;52.330;9.104;2023-07-13T10:56:48;100912.16;;;25.83;51.16
3132;BME280;62090;52.330;9.104;2023-07-13T10:59:24;100930.97;;;26.16;50.11
3132;BME280;62090;52.330;9.104;2023-07-13T11:02:10;100934.69;;;26.34;49.29
3132;BME280;62090;52.330;9.104;2023-07-13T11:04:42;100933.63;;;26.15;49.73
3132;BME280;62090;52.330;9.104;2023-07-13T11:07:20;100930.31;;;25.86;49.85
3132;BME280;62090;52.330;9.104;2023-07-13T11:09:54;100939.44;;;25.99;49.40
3132;BME280;62090;52.330;9.104;2023-07-13T11:12:49;100941.13;;;26.00;50.29
3132;BME280;62090;52.330;9.104;2023-07-13T11:15:44;100946.16;;;26.06;49.79
3132;BME280;62090;52.330;9.104;2023-07-13T11:18:23;100942.34;;;26.15;48.82
3132;BME280;62090;52.330;9.104;2023-07-13T11:21:12;100909.19;;;26.17;48.99
3132;BME280;62090;52.330;9.104;2023-07-13T11:24:03;100938.22;;;26.33;50.10
3132;BME280;62090;52.330;9.104;2023-07-13T11:26:50;100909.81;;;26.24;49.39
3132;BME280;62090;52.330;9.104;2023-07-13T11:29:27;100933.09;;;26.30;49.54
3132;BME280;62090;52.330;9.104;2023-07-13T11:32:23;100946.56;;;26.18;49.95
3132;BME280;62090;52.330;9.104;2023-07-13T11:34:54;100903.63;;;25.78;49.20
3132;BME280;62090;52.330;9.104;2023-07-13T11:37:24;100937.53;;;26.03;49.01
3132;BME280;62090;52.330;9.104;2023-07-13T11:39:55;100868.72;;;25.57;49.18
3132;BME280;62090;52.330;9.104;2023-07-13T11:42:30;100931.25;;;25.85;49.15
3132;BME280;62090;52.330;9.104;2023-07-13T11:45:00;100918.50;;;25.50;49.46
3132;BME280;62090;52.330;9.104;2023-07-13T11:47:40;100908.59;;;25.10;49.38
3132;BME280;62090;52.330;9.104;2023-07-13T11:50:18;100953.47;;;25.46;50.72
3132;BME280;62090;52.330;9.104;2023-07-13T11:52:49;100904.41;;;25.31;50.77
3132;BME280;62090;52.330;9.104;2023-07-13T11:55:22;100946.22;;;25.54;50.46
3132;BME280;62090;52.330;9.104;2023-07-13T11:57:58;100836.69;;;25.01;50.68
3132;BME280;62090;52.330;9.104;2023-07-13T12:00:32;100945.63;;;25.72;50.02
3132;BME280;62090;52.330;9.104;2023-07-13T12:03:05;100890.81;;;25.46;50.02
3132;BME280;62090;52.330;9.104;2023-07-13T12:05:36;100930.19;;;25.91;50.01
3132;BME280;62090;52.330;9.104;2023-07-13T12:08:10;100882.53;;;25.59;49.79
3132;BME280;62090;52.330;9.104;2023-07-13T12:11:00;100952.81;;;26.14;51.65
3132;BME280;62090;52.330;9.104;2023-07-13T12:13:38;100944.69;;;26.23;51.06
3132;BME280;62090;52.330;9.104;2023-07-13T12:16:12;100932.75;;;26.39;49.85
3132;BME280;62090;52.330;9.104;2023-07-13T12:18:44;100951.56;;;26.70;48.70
3132;BME280;62090;52.330;9.104;2023-07-13T12:21:18;100933.50;;;26.87;48.84
3132;BME280;62090;52.330;9.104;2023-07-13T12:23:49;100910.38;;;26.99;49.88
3132;BME280;62090;52.330;9.104;2023-07-13T12:26:19;100938.22;;;27.42;47.63
3132;BME280;62090;52.330;9.104;2023-07-13T12:28:53;100935.81;;;27.37;46.72
3132;BME280;62090;52.330;9.104;2023-07-13T12:31:29;100900.72;;;27.21;47.04
3132;BME280;62090;52.330;9.104;2023-07-13T12:34:01;100929.19;;;27.28;48.05
3132;BME280;62090;52.330;9.104;2023-07-13T12:36:34;100946.47;;;27.33;47.13
3132;BME280;62090;52.330;9.104;2023-07-13T12:39:12;100941.81;;;27.39;46.90
3132;BME280;62090;52.330;9.104;2023-07-13T12:41:42;100948.63;;;27.23;47.30
3132;BME280;62090;52.330;9.104;2023-07-13T12:44:18;100940.19;;;27.37;46.15
3132;BME280;62090;52.330;9.104;2023-07-13T12:46:58;100951.97;;;27.05;45.21
3132;BME280;62090;52.330;9.104;2023-07-13T12:49:30;100953.81;;;26.58;46.71
3132;BME280;62090;52.330;9.104;2023-07-13T12:52:10;100965.03;;;26.38;46.89
3132;BME280;62090;52.330;9.104;2023-07-13T12:54:52;100964.09;;;26.39;46.92
3132;BME280;62090;52.330;9.104;2023-07-13T12:57:38;100956.97;;;26.19;48.06
3132;BME280;62090;52.330;9.104;2023-07-13T13:00:28;100990.13;;;25.69;49.73
3132;BME280;62090;52.330;9.104;2023-07-13T13:03:03;100996.69;;;24.71;52.47
3132;BME280;62090;52.330;9.104;2023-07-13T13:05:41;101000.28;;;23.73;55.54
3132;BME280;62090;52.330;9.104;2023-07-13T13:08:13;101016.28;;;23.21;56.62
3132;BME280;62090;52.330;9.104;2023-07-13T13:10:43;101005.50;;;22.99;58.22
3132;BME280;62090;52.330;9.104;2023-07-13T13:13:13;101023.13;;;22.85;58.75
3132;BME280;62090;52.330;9.104;2023-07-13T13:15:45;101007.56;;;22.42;59.08
3132;BME280;62090;52.330;9.104;2023-07-13T13:18:17;101008.09;;;22.14;60.54
3132;BME280;62090;52.330;9.104;2023-07-13T13:20:48;101005.44;;;22.16;60.83
3132;BME280;62090;52.330;9.104;2023-07-13T13:23:19;101020.06;;;22.21;60.66
3132;BME280;62090;52.330;9.104;2023-07-13T13:25:50;100959.25;;;21.88;61.26
3132;BME280;62090;52.330;9.104;2023-07-13T13:28:21;101016.03;;;22.50;60.11
3132;BME280;62090;52.330;9.104;2023-07-13T13:30:54;101033.81;;;22.69;60.55